createdAt,value
2023-02-09T00:01:10.090Z,15.45
2023-02-09T00:03:37.687Z,14.88
2023-02-09T00:06:07.060Z,25.75
2023-02-09T00:08:35.153Z,17.13
2023-02-09T00:11:06.391Z,24.85
2023-02-09T00:13:33.347Z,20.83
2023-02-09T00:16:03.932Z,16.27
2023-02-09T00:18:33.281Z,16.63
2023-02-09T00:21:06.494Z,18.27
2023-02-09T00:23:35.448Z,12.25
2023-02-09T00:26:04.902Z,18.00
2023-02-09T00:28:31.911Z,17.27
2023-02-09T00:30:59.078Z,17.17
2023-02-09T00:33:26.245Z,16.08
2023-02-09T00:35:53.043Z,15.40
2023-02-09T00:38:19.864Z,15.18
2023-02-09T00:40:48.482Z,13.27
2023-02-09T00:43:15.446Z,13.00
2023-02-09T00:45:42.502Z,14.30
2023-02-09T00:48:09.367Z,12.80
2023-02-09T00:50:36.180Z,15.45
2023-02-09T00:53:03.035Z,16.38
2023-02-09T00:55:29.823Z,20.98
2023-02-09T00:57:59.457Z,13.20
2023-02-09T01:00:26.593Z,11.90
2023-02-09T01:02:55.841Z,12.70
2023-02-09T01:05:22.990Z,12.90
2023-02-09T01:07:49.755Z,11.88
2023-02-09T01:10:16.658Z,12.35
2023-02-09T01:12:43.595Z,12.65
2023-02-09T01:15:12.091Z,14.48
2023-02-09T01:17:38.943Z,11.45
2023-02-09T01:20:08.476Z,12.38
2023-02-09T01:22:36.998Z,12.68
2023-02-09T01:25:05.333Z,12.27
2023-02-09T01:27:32.148Z,12.93
2023-02-09T01:29:59.290Z,13.18
2023-02-09T01:32:26.453Z,13.38
2023-02-09T01:34:54.239Z,10.55
2023-02-09T01:37:21.329Z,12.98
2023-02-09T01:39:48.330Z,11.75
2023-02-09T01:42:16.940Z,12.18
2023-02-09T01:44:43.727Z,12.95
2023-02-09T01:47:19.050Z,14.00
2023-02-09T01:49:49.732Z,12.13
2023-02-09T01:52:21.107Z,14.05
2023-02-09T01:55:16.579Z,13.27
2023-02-09T01:57:49.111Z,17.73
2023-02-09T02:00:18.441Z,16.00
2023-02-09T02:02:48.322Z,13.13
2023-02-09T02:05:16.301Z,12.13
2023-02-09T02:08:02.359Z,12.85
2023-02-09T02:10:30.085Z,12.70
2023-02-09T02:12:57.790Z,14.85
2023-02-09T02:15:36.931Z,11.82
2023-02-09T02:18:27.064Z,12.15
2023-02-09T02:21:18.586Z,12.80
2023-02-09T02:24:14.960Z,13.88
2023-02-09T02:26:53.463Z,12.18
2023-02-09T02:29:38.798Z,15.18
2023-02-09T02:32:25.168Z,11.48
2023-02-09T02:35:01.783Z,18.35
2023-02-09T02:37:40.266Z,13.43
2023-02-09T02:40:45.995Z,14.60
2023-02-09T02:43:30.014Z,11.10
2023-02-09T02:46:06.046Z,11.77
2023-02-09T02:48:43.219Z,10.52
2023-02-09T02:51:25.413Z,13.10
2023-02-09T02:53:56.918Z,10.70
2023-02-09T02:56:38.093Z,10.77
2023-02-09T02:59:11.008Z,11.02
2023-02-09T03:01:48.541Z,12.40
2023-02-09T03:04:17.251Z,14.32
2023-02-09T03:06:44.055Z,10.77
2023-02-09T03:09:11.699Z,11.52
2023-02-09T03:11:43.929Z,12.43
2023-02-09T03:14:38.852Z,13.85
2023-02-09T03:17:44.153Z,15.50
2023-02-09T03:20:16.900Z,10.50
2023-02-09T03:22:49.563Z,15.55
2023-02-09T03:25:40.600Z,13.15
2023-02-09T03:28:14.269Z,12.90
2023-02-09T03:30:42.749Z,12.95
2023-02-09T03:33:23.110Z,12.02
2023-02-09T03:35:54.773Z,17.85
2023-02-09T03:38:21.621Z,12.93
2023-02-09T03:40:48.439Z,12.15
2023-02-09T03:43:15.403Z,14.98
2023-02-09T03:45:42.313Z,12.38
2023-02-09T03:48:09.383Z,11.43
2023-02-09T03:50:37.250Z,11.68
2023-02-09T03:53:07.928Z,10.68
2023-02-09T03:55:35.856Z,11.25
2023-02-09T03:58:02.657Z,18.85
2023-02-09T04:00:29.498Z,14.73
2023-02-09T04:02:56.595Z,12.60
2023-02-09T04:05:23.510Z,13.45
2023-02-09T04:07:50.438Z,12.57
2023-02-09T04:10:17.298Z,10.93
2023-02-09T04:12:44.147Z,13.18
2023-02-09T04:15:10.991Z,11.90
2023-02-09T04:17:37.811Z,15.63
2023-02-09T04:20:05.062Z,13.45
2023-02-09T04:22:32.101Z,16.63
2023-02-09T04:24:58.923Z,13.57
2023-02-09T04:27:27.399Z,13.60
2023-02-09T04:29:54.270Z,14.43
2023-02-09T04:32:21.130Z,12.68
2023-02-09T04:34:48.021Z,13.40
2023-02-09T04:37:14.914Z,14.18
2023-02-09T04:39:41.727Z,12.18
2023-02-09T04:42:08.530Z,10.07
2023-02-09T04:44:35.648Z,13.52
2023-02-09T04:47:02.571Z,11.38
2023-02-09T04:49:29.337Z,13.85
2023-02-09T04:51:56.194Z,13.95
2023-02-09T04:54:23.006Z,13.30
2023-02-09T04:57:09.737Z,15.05
2023-02-09T04:59:39.109Z,15.75
2023-02-09T05:02:05.947Z,12.25
2023-02-09T05:04:32.830Z,15.80
2023-02-09T05:06:59.617Z,13.68
2023-02-09T05:09:26.889Z,15.38
2023-02-09T05:11:53.724Z,11.50
2023-02-09T05:14:20.650Z,15.30
2023-02-09T05:16:47.603Z,12.27
2023-02-09T05:19:14.438Z,14.55
2023-02-09T05:21:41.318Z,14.02
2023-02-09T05:24:08.322Z,15.07
2023-02-09T05:26:35.266Z,15.15
2023-02-09T05:29:02.141Z,15.98
2023-02-09T05:31:29.382Z,13.55
2023-02-09T05:33:56.386Z,12.80
2023-02-09T05:36:23.146Z,13.32
2023-02-09T05:38:50.031Z,14.85
2023-02-09T05:41:35.365Z,17.30
2023-02-09T05:44:03.702Z,15.43
2023-02-09T05:46:30.545Z,15.82
2023-02-09T05:48:57.320Z,11.23
2023-02-09T05:51:24.118Z,14.57
2023-02-09T05:53:53.474Z,14.57
2023-02-09T05:56:21.202Z,12.23
2023-02-09T05:58:48.038Z,15.50
2023-02-09T06:01:14.852Z,13.10
2023-02-09T06:03:41.687Z,16.17
2023-02-09T06:06:08.532Z,13.48
2023-02-09T06:08:35.504Z,12.23
2023-02-09T06:11:04.063Z,12.80
2023-02-09T06:13:30.838Z,16.48
2023-02-09T06:15:57.758Z,16.50
2023-02-09T06:18:24.610Z,13.35
2023-02-09T06:20:53.415Z,15.75
2023-02-09T06:23:20.280Z,11.95
2023-02-09T06:25:47.175Z,18.83
2023-02-09T06:28:14.164Z,11.73
2023-02-09T06:30:41.193Z,15.05
2023-02-09T06:33:08.161Z,13.77
2023-02-09T06:35:34.993Z,19.38
2023-02-09T06:38:01.779Z,12.05
2023-02-09T06:40:29.166Z,10.32
2023-02-09T06:42:56.627Z,8.90
2023-02-09T06:45:23.749Z,15.80
2023-02-09T06:47:50.744Z,15.35
2023-02-09T06:50:18.193Z,10.65
2023-02-09T06:52:45.543Z,9.50
2023-02-09T06:55:12.910Z,10.98
2023-02-09T06:57:40.608Z,21.55
2023-02-09T07:00:09.339Z,12.32
2023-02-09T07:02:36.330Z,11.57
2023-02-09T07:05:03.363Z,13.15
2023-02-09T07:07:30.146Z,15.82
2023-02-09T07:09:57.025Z,14.00
2023-02-09T07:12:24.279Z,12.10
2023-02-09T07:14:51.175Z,11.55
2023-02-09T07:17:18.009Z,12.15
2023-02-09T07:19:44.798Z,14.68
2023-02-09T07:22:11.897Z,14.68
2023-02-09T07:24:38.776Z,13.80
2023-02-09T07:27:06.138Z,15.70
2023-02-09T07:29:33.954Z,10.35
2023-02-09T07:32:00.927Z,20.30
2023-02-09T07:34:27.777Z,16.05
2023-02-09T07:36:54.619Z,16.60
2023-02-09T07:39:21.722Z,14.27
2023-02-09T07:41:48.555Z,14.30
2023-02-09T07:44:15.341Z,15.27
2023-02-09T07:46:42.369Z,13.95
2023-02-09T07:49:09.717Z,15.07
2023-02-09T07:51:36.988Z,13.23
2023-02-09T07:54:07.085Z,12.27
2023-02-09T07:56:34.219Z,14.23
2023-02-09T07:59:01.029Z,15.35
2023-02-09T08:01:27.921Z,14.25
2023-02-09T08:03:54.767Z,12.23
2023-02-09T08:06:28.011Z,12.98
2023-02-09T08:09:05.350Z,12.43
2023-02-09T08:12:01.625Z,19.25
2023-02-09T08:14:39.959Z,13.18
2023-02-09T08:17:24.377Z,12.30
2023-02-09T08:19:57.161Z,11.40
2023-02-09T08:22:28.835Z,14.70
2023-02-09T08:24:56.367Z,18.63
2023-02-09T08:27:23.571Z,13.00
2023-02-09T08:29:50.447Z,16.65
2023-02-09T08:32:17.419Z,13.00
2023-02-09T08:34:44.299Z,15.82
2023-02-09T08:37:11.266Z,15.73
2023-02-09T08:39:38.099Z,12.60
2023-02-09T08:42:05.131Z,17.30
2023-02-09T08:44:32.059Z,11.82
2023-02-09T08:46:59.082Z,13.00
2023-02-09T08:49:25.977Z,14.05
2023-02-09T08:51:52.888Z,15.35
2023-02-09T08:54:20.042Z,15.75
2023-02-09T08:56:46.882Z,13.30
2023-02-09T08:59:13.735Z,13.50
2023-02-09T09:01:40.652Z,12.10
2023-02-09T09:04:07.937Z,15.30
2023-02-09T09:06:34.861Z,14.25
2023-02-09T09:09:01.679Z,12.73
2023-02-09T09:11:29.843Z,15.73
2023-02-09T09:13:58.475Z,12.48
2023-02-09T09:16:25.362Z,12.45
2023-02-09T09:18:52.236Z,14.18
2023-02-09T09:21:19.459Z,22.63
2023-02-09T09:23:47.096Z,14.68
2023-02-09T09:26:15.251Z,14.77
2023-02-09T09:28:42.379Z,18.30
2023-02-09T09:31:15.063Z,16.50
2023-02-09T09:33:42.836Z,11.68
2023-02-09T09:36:11.770Z,16.58
2023-02-09T09:38:39.314Z,12.52
2023-02-09T09:41:18.198Z,19.02
2023-02-09T09:43:45.230Z,13.93
2023-02-09T09:46:19.231Z,20.55
2023-02-09T09:48:52.792Z,12.07
2023-02-09T09:51:40.142Z,12.88
2023-02-09T09:54:16.155Z,13.95
2023-02-09T09:56:43.075Z,16.02
2023-02-09T09:59:23.450Z,14.70
2023-02-09T10:01:52.843Z,13.60
2023-02-09T10:04:23.813Z,16.38
2023-02-09T10:07:02.056Z,16.30
2023-02-09T10:09:33.225Z,14.73
2023-02-09T10:12:14.559Z,15.77
2023-02-09T10:14:41.534Z,16.17
2023-02-09T10:17:09.938Z,14.07
2023-02-09T10:19:36.800Z,12.90
2023-02-09T10:22:04.371Z,18.23
2023-02-09T10:24:33.630Z,15.70
2023-02-09T10:27:14.548Z,13.45
2023-02-09T10:29:44.568Z,22.08
2023-02-09T10:32:11.744Z,14.13
2023-02-09T10:34:38.502Z,15.88
2023-02-09T10:37:19.984Z,15.27
2023-02-09T10:39:53.766Z,17.35
2023-02-09T10:42:33.529Z,18.15
2023-02-09T10:45:40.907Z,12.63
2023-02-09T10:48:13.919Z,16.63
2023-02-09T10:51:07.430Z,18.75
2023-02-09T10:53:55.305Z,12.30
2023-02-09T10:56:26.494Z,12.55
2023-02-09T10:59:02.101Z,21.10
2023-02-09T11:01:44.110Z,17.27
2023-02-09T11:04:24.334Z,22.90
2023-02-09T11:07:05.951Z,22.42
2023-02-09T11:09:51.384Z,15.10
2023-02-09T11:12:22.728Z,14.50
2023-02-09T11:14:49.787Z,15.13
2023-02-09T11:17:45.596Z,16.25
2023-02-09T11:20:15.517Z,15.57
2023-02-09T11:23:10.160Z,14.90
2023-02-09T11:25:49.690Z,13.55
2023-02-09T11:28:31.655Z,12.55
2023-02-09T11:31:30.459Z,16.08
2023-02-09T11:34:29.426Z,14.85
2023-02-09T11:37:08.249Z,19.45
2023-02-09T11:39:56.069Z,19.45
2023-02-09T11:42:44.712Z,19.45
2023-02-09T11:45:35.080Z,15.57
2023-02-09T11:48:12.838Z,16.70
2023-02-09T11:50:58.380Z,15.88
2023-02-09T11:53:55.770Z,17.42
2023-02-09T11:56:27.602Z,17.80
2023-02-09T11:58:57.290Z,19.80
2023-02-09T12:01:51.856Z,14.30
2023-02-09T12:04:38.587Z,18.25
2023-02-09T12:07:32.738Z,19.30
2023-02-09T12:10:06.604Z,15.60
2023-02-09T12:12:48.979Z,17.83
2023-02-09T12:15:17.283Z,16.90
2023-02-09T12:18:03.389Z,16.70
2023-02-09T12:20:36.384Z,17.90
2023-02-09T12:23:04.542Z,16.63
2023-02-09T12:25:49.698Z,21.92
2023-02-09T12:28:24.424Z,19.60
2023-02-09T12:33:24.562Z,18.58
2023-02-09T12:36:08.475Z,19.45
2023-02-09T12:38:55.513Z,18.92
2023-02-09T12:41:23.546Z,19.77
2023-02-09T12:43:51.477Z,18.20
2023-02-09T12:46:26.516Z,19.83
2023-02-09T12:49:19.917Z,22.40
2023-02-09T12:51:52.987Z,22.30
2023-02-09T12:54:40.862Z,17.45
2023-02-09T12:57:17.051Z,17.88
2023-02-09T12:59:50.342Z,19.80
2023-02-09T13:05:05.637Z,16.23
2023-02-09T13:07:44.916Z,16.80
2023-02-09T13:10:21.989Z,21.05
2023-02-09T13:13:17.535Z,16.90
2023-02-09T13:16:05.532Z,17.40
2023-02-09T13:19:09.770Z,16.77
2023-02-09T13:22:10.473Z,22.58
2023-02-09T13:24:52.899Z,16.85
2023-02-09T13:27:22.400Z,20.10
2023-02-09T13:29:57.921Z,19.48
2023-02-09T13:32:37.055Z,21.23
2023-02-09T13:35:15.265Z,15.27
2023-02-09T13:37:45.100Z,24.65
2023-02-09T13:40:24.674Z,22.90
2023-02-09T13:43:00.612Z,20.17
2023-02-09T13:45:28.247Z,19.10
2023-02-09T13:47:56.978Z,19.33
2023-02-09T13:50:25.659Z,21.77
2023-02-09T13:52:52.526Z,25.20
2023-02-09T13:55:25.692Z,26.35
2023-02-09T13:57:56.626Z,21.48
2023-02-09T14:00:30.449Z,21.15
2023-02-09T14:03:00.913Z,19.17
2023-02-09T14:05:30.735Z,22.45
2023-02-09T14:07:57.987Z,25.67
2023-02-09T14:10:26.216Z,21.63
2023-02-09T14:12:59.964Z,20.77
2023-02-09T14:15:50.667Z,27.63
2023-02-09T14:18:30.357Z,23.98
2023-02-09T14:21:02.894Z,25.02
2023-02-09T14:23:33.031Z,24.35
2023-02-09T14:26:04.793Z,27.58
2023-02-09T14:28:32.173Z,24.90
2023-02-09T14:30:59.510Z,31.80
2023-02-09T14:33:28.680Z,29.52
2023-02-09T14:35:59.253Z,34.35
2023-02-09T14:38:37.668Z,27.65
2023-02-09T14:41:31.444Z,32.30
2023-02-09T14:44:03.699Z,34.53
2023-02-09T14:46:50.755Z,37.47
2023-02-09T14:49:18.424Z,32.75
2023-02-09T14:51:45.955Z,35.47
2023-02-09T14:54:23.097Z,38.15
2023-02-09T14:56:50.601Z,32.58
2023-02-09T14:59:19.124Z,31.63
2023-02-09T15:01:47.918Z,38.78
2023-02-09T15:04:14.858Z,37.53
2023-02-09T15:06:43.978Z,35.92
2023-02-09T15:09:29.660Z,35.90
2023-02-09T15:12:06.031Z,34.33
2023-02-09T15:14:54.677Z,31.67
2023-02-09T15:17:25.556Z,33.60
2023-02-09T15:19:52.659Z,34.88
2023-02-09T15:22:20.222Z,29.98
2023-02-09T15:24:49.367Z,33.15
2023-02-09T15:27:32.816Z,32.83
2023-02-09T15:30:03.029Z,37.13
2023-02-09T15:32:31.175Z,30.67
2023-02-09T15:34:58.103Z,31.17
2023-02-09T15:37:28.445Z,30.17
2023-02-09T15:40:12.736Z,27.13
2023-02-09T15:42:59.038Z,28.77
2023-02-09T15:45:47.451Z,31.02
2023-02-09T15:48:15.052Z,26.98
2023-02-09T15:50:45.899Z,26.88
2023-02-09T15:53:16.201Z,26.50
2023-02-09T15:55:43.504Z,24.13
2023-02-09T15:58:16.551Z,32.60
2023-02-09T16:00:43.855Z,27.95
2023-02-09T16:03:15.418Z,25.58
2023-02-09T16:05:42.805Z,29.90
2023-02-09T16:08:30.250Z,32.90
2023-02-09T16:10:57.576Z,31.50
2023-02-09T16:13:25.271Z,26.45
2023-02-09T16:15:53.061Z,29.30
2023-02-09T16:18:20.112Z,25.45
2023-02-09T16:20:51.154Z,28.42
2023-02-09T16:23:21.744Z,26.38
2023-02-09T16:25:53.373Z,27.08
2023-02-09T16:28:21.837Z,32.40
2023-02-09T16:30:57.227Z,31.60
2023-02-09T16:33:25.867Z,29.05
2023-02-09T16:35:59.110Z,28.55
2023-02-09T16:40:54.798Z,30.42
2023-02-09T16:43:22.608Z,25.58
2023-02-09T16:46:02.305Z,29.40
2023-02-09T16:48:32.475Z,26.45
2023-02-09T16:50:59.734Z,24.85
2023-02-09T16:53:37.129Z,31.02
2023-02-09T16:56:10.108Z,25.08
2023-02-09T16:58:38.048Z,22.30
2023-02-09T17:01:13.114Z,25.13
2023-02-09T17:03:41.917Z,23.88
2023-02-09T17:06:24.164Z,29.00
2023-02-09T17:08:51.554Z,24.45
2023-02-09T17:11:22.211Z,25.50
2023-02-09T17:13:49.932Z,25.13
2023-02-09T17:16:31.126Z,28.30
2023-02-09T17:19:01.673Z,28.30
2023-02-09T17:21:35.381Z,26.67
2023-02-09T17:24:05.147Z,23.20
2023-02-09T17:26:32.041Z,29.17
2023-02-09T17:28:59.048Z,21.08
2023-02-09T17:31:29.989Z,23.88
2023-02-09T17:34:00.902Z,23.70
2023-02-09T17:36:31.985Z,27.23
2023-02-09T17:39:00.226Z,32.45
2023-02-09T17:41:37.363Z,33.22
2023-02-09T17:44:31.881Z,31.50
2023-02-09T17:47:05.027Z,28.85
2023-02-09T17:49:32.307Z,32.40
2023-02-09T17:51:59.203Z,32.30
2023-02-09T17:54:27.870Z,28.90
2023-02-09T17:56:54.764Z,35.00
2023-02-09T17:59:21.666Z,33.13
2023-02-09T18:01:51.732Z,35.13
2023-02-09T18:04:26.907Z,32.97
2023-02-09T18:06:56.609Z,31.33
2023-02-09T18:09:24.539Z,37.20
2023-02-09T18:11:51.302Z,33.13
2023-02-09T18:14:20.442Z,31.25
2023-02-09T18:16:47.930Z,34.47
2023-02-09T18:19:16.314Z,30.13
2023-02-09T18:21:58.625Z,39.92
2023-02-09T18:24:30.177Z,49.72
2023-02-09T18:26:57.320Z,33.58
2023-02-09T18:29:29.483Z,35.97
2023-02-09T18:31:58.494Z,34.90
2023-02-09T18:34:26.132Z,38.85
2023-02-09T18:36:53.048Z,35.70
2023-02-09T18:39:19.963Z,36.03
2023-02-09T18:41:54.350Z,33.42
2023-02-09T18:44:28.994Z,43.38
2023-02-09T18:46:58.037Z,34.33
2023-02-09T18:49:25.878Z,35.95
2023-02-09T18:51:52.849Z,34.03
2023-02-09T18:54:19.739Z,34.97
2023-02-09T18:56:46.640Z,32.50
2023-02-09T18:59:14.621Z,33.03
2023-02-09T19:01:42.106Z,44.75
2023-02-09T19:04:09.799Z,38.97
2023-02-09T19:06:37.450Z,35.40
2023-02-09T19:09:04.911Z,40.45
2023-02-09T19:11:31.984Z,36.88
2023-02-09T19:14:17.224Z,44.30
2023-02-09T19:16:44.312Z,39.70
2023-02-09T19:19:13.321Z,38.53
2023-02-09T19:21:40.242Z,36.38
2023-02-09T19:24:07.491Z,35.60
2023-02-09T19:26:34.594Z,34.03
2023-02-09T19:29:01.555Z,35.20
2023-02-09T19:31:28.647Z,44.78
2023-02-09T19:33:57.033Z,38.25
2023-02-09T19:36:25.164Z,39.05
2023-02-09T19:38:52.204Z,34.70
2023-02-09T19:41:20.510Z,39.85
2023-02-09T19:43:47.367Z,38.70
2023-02-09T19:46:14.731Z,46.13
2023-02-09T19:48:42.080Z,35.05
2023-02-09T19:51:09.068Z,38.03
2023-02-09T19:53:36.098Z,36.45
2023-02-09T19:56:03.406Z,43.47
2023-02-09T19:58:30.655Z,41.03
2023-02-09T20:00:57.853Z,45.72
2023-02-09T20:03:25.319Z,44.70
2023-02-09T20:05:52.246Z,45.95
2023-02-09T20:08:20.426Z,46.25
2023-02-09T20:10:48.015Z,42.10
2023-02-09T20:13:15.654Z,46.08
2023-02-09T20:15:43.928Z,42.95
2023-02-09T20:18:13.373Z,46.55
2023-02-09T20:20:43.071Z,54.97
2023-02-09T20:23:10.304Z,44.05
2023-02-09T20:25:40.855Z,42.28
2023-02-09T20:28:08.287Z,41.53
2023-02-09T20:30:35.442Z,47.03
2023-02-09T20:33:02.511Z,48.05
2023-02-09T20:35:29.422Z,51.10
2023-02-09T20:37:56.943Z,59.83
2023-02-09T20:40:23.916Z,45.13
2023-02-09T20:43:09.305Z,50.78
2023-02-09T20:45:54.645Z,50.28
2023-02-09T20:48:24.621Z,51.97
2023-02-09T20:50:51.438Z,48.97
2023-02-09T20:53:18.451Z,41.75
2023-02-09T20:55:46.774Z,47.58
2023-02-09T20:58:13.905Z,58.25
2023-02-09T21:00:44.012Z,54.00
2023-02-09T21:03:11.690Z,57.42
2023-02-09T21:05:38.610Z,57.60
2023-02-09T21:08:06.955Z,51.88
2023-02-09T21:10:36.120Z,51.17
2023-02-09T21:13:08.113Z,58.10
2023-02-09T21:15:40.733Z,53.70
2023-02-09T21:18:08.049Z,52.72
2023-02-09T21:20:35.899Z,54.42
2023-02-09T21:23:02.851Z,78.13
2023-02-09T21:25:29.944Z,56.92
2023-02-09T21:27:59.661Z,57.05
2023-02-09T21:30:27.354Z,56.38
2023-02-09T21:32:55.425Z,66.78
2023-02-09T21:35:22.976Z,60.83
2023-02-09T21:37:49.810Z,57.60
2023-02-09T21:40:16.913Z,57.47
2023-02-09T21:42:43.927Z,60.83
2023-02-09T21:45:11.855Z,61.00
2023-02-09T21:47:40.182Z,59.40
2023-02-09T21:50:09.400Z,59.90
2023-02-09T21:52:36.557Z,64.35
2023-02-09T21:55:04.326Z,61.08
2023-02-09T21:57:31.312Z,62.65
2023-02-09T21:59:59.856Z,65.88
2023-02-09T22:02:27.478Z,64.75
2023-02-09T22:04:54.417Z,70.32
2023-02-09T22:07:21.332Z,64.28
2023-02-09T22:09:48.534Z,68.90
2023-02-09T22:12:15.523Z,63.45
2023-02-09T22:14:45.046Z,68.32
2023-02-09T22:17:11.900Z,63.88
2023-02-09T22:19:38.819Z,62.97
2023-02-09T22:22:05.809Z,64.32
2023-02-09T22:24:34.771Z,65.70
2023-02-09T22:27:05.580Z,72.53
2023-02-09T22:29:35.497Z,60.20
2023-02-09T22:32:02.812Z,64.68
2023-02-09T22:34:29.877Z,60.40
2023-02-09T22:36:56.719Z,62.65
2023-02-09T22:39:23.580Z,60.03
2023-02-09T22:41:50.469Z,67.93
2023-02-09T22:44:17.697Z,59.95
2023-02-09T22:46:47.834Z,71.10
2023-02-09T22:49:19.782Z,64.18
2023-02-09T22:51:48.464Z,62.47
2023-02-09T22:54:17.663Z,58.28
2023-02-09T22:56:44.640Z,53.33
2023-02-09T22:59:13.630Z,65.72
2023-02-09T23:01:40.566Z,73.22
2023-02-09T23:04:07.479Z,64.25
2023-02-09T23:06:34.519Z,66.97
2023-02-09T23:09:04.094Z,55.28
2023-02-09T23:11:32.082Z,76.50
2023-02-09T23:14:09.029Z,60.58
2023-02-09T23:16:37.139Z,71.68
2023-02-09T23:19:06.622Z,60.13
2023-02-09T23:21:39.801Z,63.05
2023-02-09T23:24:07.873Z,68.03
2023-02-09T23:26:35.552Z,62.35
2023-02-09T23:29:07.110Z,61.05
2023-02-09T23:31:34.307Z,57.30
2023-02-09T23:34:01.198Z,63.38
2023-02-09T23:36:30.397Z,66.68
2023-02-09T23:39:03.097Z,58.75
2023-02-09T23:41:30.426Z,61.33
2023-02-09T23:43:58.030Z,55.17
2023-02-09T23:46:28.772Z,59.53
2023-02-09T23:48:56.863Z,61.13
2023-02-09T23:51:26.706Z,67.28
2023-02-09T23:53:54.975Z,65.75
2023-02-09T23:56:22.309Z,60.47
2023-02-09T23:58:51.288Z,62.40
